createdAt,value
2019-04-25T00:00:01.840Z,53.20
2019-04-25T00:02:34.986Z,53.20
2019-04-25T00:05:04.828Z,53.30
2019-04-25T00:07:33.201Z,53.40
2019-04-25T00:10:01.749Z,53.60
2019-04-25T00:12:30.054Z,53.70
2019-04-25T00:14:58.442Z,53.70
2019-04-25T00:17:27.175Z,53.90
2019-04-25T00:19:55.599Z,54.10
2019-04-25T00:22:25.594Z,54.10
2019-04-25T00:25:15.916Z,54.30
2019-04-25T00:27:44.355Z,54.30
2019-04-25T00:30:12.233Z,54.30
2019-04-25T00:32:42.146Z,54.40
2019-04-25T00:35:11.797Z,54.30
2019-04-25T00:37:43.061Z,54.70
2019-04-25T00:40:11.867Z,54.60
2019-04-25T00:42:42.797Z,54.80
2019-04-25T00:45:11.893Z,55.00
2019-04-25T00:47:42.467Z,55.10
2019-04-25T00:50:11.994Z,55.30
2019-04-25T00:52:42.371Z,55.20
2019-04-25T00:55:11.629Z,55.30
2019-04-25T00:57:42.693Z,55.50
2019-04-25T01:00:25.085Z,55.50
2019-04-25T01:02:55.183Z,55.70
2019-04-25T01:05:23.555Z,55.90
2019-04-25T01:07:53.256Z,55.90
2019-04-25T01:10:23.092Z,55.90
2019-04-25T01:12:52.917Z,55.80
2019-04-25T01:15:22.643Z,55.90
2019-04-25T01:17:51.546Z,56.10
2019-04-25T01:20:21.022Z,56.00
2019-04-25T01:22:49.393Z,56.20
2019-04-25T01:25:17.855Z,56.20
2019-04-25T01:27:46.398Z,56.20
2019-04-25T01:30:15.645Z,56.40
2019-04-25T01:32:44.884Z,56.40
2019-04-25T01:35:18.018Z,56.70
2019-04-25T01:37:48.907Z,56.70
2019-04-25T01:40:23.520Z,56.80
2019-04-25T01:43:09.627Z,56.80
2019-04-25T01:45:38.078Z,57.00
2019-04-25T01:48:07.211Z,57.20
2019-04-25T01:50:35.609Z,57.40
2019-04-25T01:53:03.986Z,57.30
2019-04-25T01:55:33.598Z,57.40
2019-04-25T01:58:03.899Z,57.40
2019-04-25T02:00:40.134Z,57.40
2019-04-25T02:03:08.605Z,57.50
2019-04-25T02:05:36.982Z,57.60
2019-04-25T02:08:06.924Z,57.70
2019-04-25T02:10:35.495Z,57.70
2019-04-25T02:13:11.399Z,58.00
2019-04-25T02:15:39.890Z,58.20
2019-04-25T02:18:08.264Z,58.20
2019-04-25T02:20:36.638Z,58.30
2019-04-25T02:23:05.134Z,58.50
2019-04-25T02:25:33.522Z,58.50
2019-04-25T02:28:03.150Z,58.60
2019-04-25T02:30:31.969Z,58.80
2019-04-25T02:33:06.155Z,58.90
2019-04-25T02:35:31.082Z,58.80
2019-04-25T02:38:02.314Z,58.90
2019-04-25T02:40:29.568Z,59.20
2019-04-25T02:42:59.926Z,59.40
2019-04-25T02:45:38.771Z,59.50
2019-04-25T02:48:17.893Z,59.40
2019-04-25T02:50:54.130Z,59.80
2019-04-25T02:53:37.193Z,59.90
2019-04-25T02:56:13.202Z,59.80
2019-04-25T02:58:34.418Z,59.80
2019-04-25T03:01:16.470Z,59.80
2019-04-25T03:03:34.809Z,60.10
2019-04-25T03:06:05.962Z,60.20
2019-04-25T03:08:35.378Z,60.30
2019-04-25T03:11:05.880Z,60.40
2019-04-25T03:13:34.244Z,60.60
2019-04-25T03:16:06.892Z,60.70
2019-04-25T03:18:34.914Z,61.10
2019-04-25T03:21:17.231Z,61.20
2019-04-25T03:23:46.363Z,61.10
2019-04-25T03:26:15.086Z,61.30
2019-04-25T03:28:43.879Z,61.30
2019-04-25T03:31:21.162Z,61.00
2019-04-25T03:33:45.775Z,61.50
2019-04-25T03:36:14.265Z,62.40
2019-04-25T03:38:44.209Z,61.70
2019-04-25T03:41:13.212Z,61.80
2019-04-25T03:43:44.177Z,61.80
2019-04-25T03:46:14.191Z,62.00
2019-04-25T03:48:44.123Z,62.00
2019-04-25T03:51:15.429Z,62.00
2019-04-25T03:53:43.774Z,62.00
2019-04-25T03:56:12.944Z,62.00
2019-04-25T03:58:43.804Z,62.10
2019-04-25T04:01:13.253Z,62.20
2019-04-25T04:03:43.860Z,62.50
2019-04-25T04:06:14.230Z,62.60
2019-04-25T04:08:44.109Z,62.40
2019-04-25T04:11:14.176Z,62.50
2019-04-25T04:13:44.045Z,62.60
2019-04-25T04:16:14.403Z,62.60
2019-04-25T04:18:45.202Z,62.60
2019-04-25T04:21:30.002Z,62.70
2019-04-25T04:24:06.108Z,62.60
2019-04-25T04:26:35.172Z,62.60
2019-04-25T04:29:04.711Z,62.90
2019-04-25T04:31:33.571Z,62.80
2019-04-25T04:34:03.658Z,63.10
2019-04-25T04:36:33.734Z,62.90
2019-04-25T04:39:03.783Z,63.10
2019-04-25T04:41:33.799Z,62.90
2019-04-25T04:44:02.212Z,63.00
2019-04-25T04:46:30.700Z,62.90
2019-04-25T04:48:59.381Z,62.90
2019-04-25T04:51:27.746Z,63.00
2019-04-25T04:53:56.143Z,63.00
2019-04-25T04:56:25.753Z,63.00
2019-04-25T04:58:54.398Z,62.90
2019-04-25T05:01:24.891Z,63.10
2019-04-25T05:04:07.835Z,63.20
2019-04-25T05:06:37.890Z,62.80
2019-04-25T05:09:11.897Z,62.50
2019-04-25T05:11:41.078Z,62.40
2019-04-25T05:14:09.547Z,62.20
2019-04-25T05:16:37.983Z,62.30
2019-04-25T05:19:06.502Z,62.20
2019-04-25T05:21:34.902Z,62.10
2019-04-25T05:24:04.158Z,61.90
2019-04-25T05:26:34.144Z,62.00
2019-04-25T05:29:03.661Z,62.00
2019-04-25T05:31:45.948Z,61.80
2019-04-25T05:34:15.758Z,61.10
2019-04-25T05:36:44.402Z,61.20
2019-04-25T05:39:15.249Z,61.40
2019-04-25T05:41:50.386Z,61.40
2019-04-25T05:44:18.802Z,61.30
2019-04-25T05:46:47.148Z,60.80
2019-04-25T05:49:15.645Z,60.90
2019-04-25T05:51:44.222Z,60.40
2019-04-25T05:54:14.053Z,60.90
2019-04-25T05:56:43.806Z,61.20
2019-04-25T05:59:15.171Z,59.90
2019-04-25T06:01:43.551Z,59.80
2019-04-25T06:04:13.571Z,59.50
2019-04-25T06:06:41.979Z,59.00
2019-04-25T06:09:11.987Z,58.70
2019-04-25T06:11:43.704Z,58.70
2019-04-25T06:14:13.792Z,58.30
2019-04-25T06:16:43.576Z,58.90
2019-04-25T06:19:18.472Z,58.40
2019-04-25T06:21:43.982Z,58.70
2019-04-25T06:24:13.996Z,58.60
2019-04-25T06:26:44.049Z,58.60
2019-04-25T06:29:13.418Z,58.80
2019-04-25T06:31:41.878Z,58.90
2019-04-25T06:34:10.242Z,58.90
2019-04-25T06:36:38.650Z,58.50
2019-04-25T06:39:08.010Z,58.20
2019-04-25T06:41:36.412Z,57.80
2019-04-25T06:44:06.611Z,57.70
2019-04-25T06:46:51.530Z,57.90
2019-04-25T06:49:24.141Z,57.70
2019-04-25T06:51:54.573Z,57.50
2019-04-25T06:54:25.425Z,57.40
2019-04-25T06:56:53.587Z,57.10
2019-04-25T06:59:25.563Z,57.00
2019-04-25T07:01:54.061Z,57.00
2019-04-25T07:04:25.116Z,56.90
2019-04-25T07:06:53.510Z,56.70
2019-04-25T07:09:24.406Z,56.80
2019-04-25T07:11:53.775Z,56.60
2019-04-25T07:14:24.530Z,56.30
2019-04-25T07:16:53.242Z,56.30
2019-04-25T07:19:22.068Z,56.10
2019-04-25T07:21:50.440Z,55.90
2019-04-25T07:24:18.901Z,55.70
2019-04-25T07:26:48.917Z,55.60
2019-04-25T07:29:18.923Z,55.30
2019-04-25T07:32:05.965Z,55.10
2019-04-25T07:34:35.136Z,54.70
2019-04-25T07:37:03.906Z,54.80
2019-04-25T07:39:33.966Z,54.70
2019-04-25T07:42:04.047Z,54.20
2019-04-25T07:44:41.951Z,54.00
2019-04-25T07:47:03.843Z,53.70
2019-04-25T07:49:33.595Z,53.50
2019-04-25T07:52:03.582Z,53.60
2019-04-25T07:54:34.014Z,53.40
2019-04-25T07:57:03.609Z,53.40
2019-04-25T07:59:34.970Z,53.00
2019-04-25T08:02:03.398Z,52.70
2019-04-25T08:04:35.728Z,52.50
2019-04-25T08:07:04.484Z,52.60
2019-04-25T08:09:35.382Z,52.40
2019-04-25T08:12:03.377Z,51.90
2019-04-25T08:14:34.231Z,51.50
2019-04-25T08:17:05.290Z,51.50
2019-04-25T08:19:34.668Z,51.30
2019-04-25T08:22:03.890Z,51.00
2019-04-25T08:24:34.279Z,51.40
2019-04-25T08:27:03.238Z,51.20
2019-04-25T08:29:31.851Z,50.90
2019-04-25T08:32:00.283Z,50.70
2019-04-25T08:34:28.678Z,51.10
2019-04-25T08:36:57.070Z,50.40
2019-04-25T08:39:25.474Z,50.00
2019-04-25T08:41:54.134Z,51.00
2019-04-25T08:44:24.161Z,51.10
2019-04-25T08:46:53.549Z,50.90
2019-04-25T08:49:24.005Z,50.90
2019-04-25T08:51:55.849Z,51.10
2019-04-25T08:54:34.364Z,50.40
2019-04-25T08:57:04.426Z,49.80
2019-04-25T08:59:44.882Z,50.00
2019-04-25T09:02:13.472Z,49.80
2019-04-25T09:04:58.779Z,49.40
2019-04-25T09:07:27.415Z,49.10
2019-04-25T09:09:55.792Z,48.90
2019-04-25T09:12:24.164Z,48.40
2019-04-25T09:14:54.223Z,48.10
2019-04-25T09:17:24.322Z,48.40
2019-04-25T09:19:54.234Z,48.70
2019-04-25T09:22:24.244Z,48.00
2019-04-25T09:24:53.986Z,47.40
2019-04-25T09:27:23.465Z,46.20
2019-04-25T09:29:52.088Z,45.70
2019-04-25T09:32:20.454Z,45.50
2019-04-25T09:34:48.834Z,44.90
2019-04-25T09:37:17.218Z,43.90
2019-04-25T09:39:56.302Z,43.60
2019-04-25T09:42:24.698Z,42.20
2019-04-25T09:45:00.558Z,42.00
2019-04-25T09:47:29.123Z,42.20
2019-04-25T09:49:57.966Z,41.20
2019-04-25T09:52:26.394Z,41.50
2019-04-25T09:54:56.438Z,42.10
2019-04-25T09:57:45.549Z,42.20
2019-04-25T10:00:15.900Z,43.30
2019-04-25T10:02:44.634Z,42.60
2019-04-25T10:05:13.953Z,42.60
2019-04-25T10:07:43.522Z,43.00
2019-04-25T10:10:13.536Z,41.80
2019-04-25T10:12:42.255Z,41.50
2019-04-25T10:15:37.483Z,41.30
2019-04-25T10:18:05.906Z,40.70
2019-04-25T10:20:34.273Z,40.40
2019-04-25T10:23:02.664Z,41.60
2019-04-25T10:25:31.046Z,41.60
2019-04-25T10:27:59.429Z,41.70
2019-04-25T10:30:27.806Z,42.10
2019-04-25T10:32:56.182Z,41.90
2019-04-25T10:35:24.573Z,41.10
2019-04-25T10:37:53.722Z,40.80
2019-04-25T10:40:25.060Z,40.80
2019-04-25T10:42:53.737Z,42.50
2019-04-25T10:45:24.267Z,43.10
2019-04-25T10:47:53.330Z,43.10
2019-04-25T10:50:23.731Z,43.10
2019-04-25T10:52:52.789Z,42.10
2019-04-25T10:55:23.401Z,42.00
2019-04-25T10:57:53.497Z,42.00
2019-04-25T11:00:25.134Z,41.00
2019-04-25T11:02:54.587Z,39.60
2019-04-25T11:05:23.961Z,40.80
2019-04-25T11:07:55.737Z,41.50
2019-04-25T11:10:23.575Z,41.70
2019-04-25T11:12:53.614Z,43.00
2019-04-25T11:15:23.406Z,43.60
2019-04-25T11:17:51.913Z,44.50
2019-04-25T11:20:26.248Z,45.60
2019-04-25T11:22:54.626Z,46.00
2019-04-25T11:25:24.058Z,46.30
2019-04-25T11:27:54.151Z,46.90
2019-04-25T11:30:24.322Z,46.90
2019-04-25T11:32:53.492Z,47.20
2019-04-25T11:35:24.171Z,47.50
2019-04-25T11:37:54.939Z,47.00
2019-04-25T11:40:40.335Z,46.00
2019-04-25T11:43:08.776Z,45.60
2019-04-25T11:45:37.188Z,44.80
2019-04-25T11:48:05.542Z,44.10
2019-04-25T11:50:33.976Z,42.80
2019-04-25T11:53:03.378Z,42.60
2019-04-25T11:55:32.419Z,42.70
2019-04-25T11:58:00.808Z,40.60
2019-04-25T12:00:30.816Z,41.40
2019-04-25T12:02:59.206Z,42.00
2019-04-25T12:05:27.569Z,42.00
2019-04-25T12:07:55.951Z,42.40
2019-04-25T12:10:24.914Z,42.80
2019-04-25T12:12:53.717Z,44.20
2019-04-25T12:15:23.976Z,44.20
2019-04-25T12:17:52.394Z,45.10
2019-04-25T12:20:20.750Z,45.60
2019-04-25T12:22:49.134Z,46.30
2019-04-25T12:25:17.644Z,46.40
2019-04-25T12:27:48.593Z,46.60
2019-04-25T12:30:16.191Z,46.80
2019-04-25T12:32:45.723Z,46.70
2019-04-25T12:35:14.602Z,45.90
2019-04-25T12:37:44.203Z,44.20
2019-04-25T12:40:14.081Z,43.80
2019-04-25T12:42:44.351Z,43.70
2019-04-25T12:45:14.558Z,44.60
2019-04-25T12:47:45.303Z,45.00
2019-04-25T12:50:14.602Z,45.70
2019-04-25T12:52:43.329Z,45.80
2019-04-25T12:55:13.956Z,45.90
2019-04-25T12:57:42.374Z,45.80
2019-04-25T13:00:14.026Z,46.90
2019-04-25T13:02:44.586Z,46.40
2019-04-25T13:05:14.129Z,46.20
2019-04-25T13:07:42.719Z,46.10
2019-04-25T13:10:11.175Z,45.40
2019-04-25T13:12:39.563Z,45.80
2019-04-25T13:15:08.896Z,45.20
2019-04-25T13:17:38.066Z,44.90
2019-04-25T13:20:07.586Z,46.10
2019-04-25T13:22:36.397Z,46.60
2019-04-25T13:25:26.301Z,47.50
2019-04-25T13:28:04.049Z,48.80
2019-04-25T13:30:46.342Z,50.30
2019-04-25T13:33:16.358Z,50.70
2019-04-25T13:35:56.209Z,50.80
2019-04-25T13:38:24.617Z,52.20
2019-04-25T13:40:52.998Z,53.70
2019-04-25T13:43:21.634Z,54.20
2019-04-25T13:45:50.011Z,55.20
2019-04-25T13:48:18.382Z,57.40
2019-04-25T13:50:47.448Z,58.10
2019-04-25T13:53:15.902Z,58.80
2019-04-25T13:55:44.274Z,59.60
2019-04-25T13:58:14.358Z,57.90
2019-04-25T14:00:44.169Z,56.60
2019-04-25T14:03:13.031Z,56.40
2019-04-25T14:05:41.490Z,57.60
2019-04-25T14:08:09.953Z,58.90
2019-04-25T14:10:38.324Z,59.20
2019-04-25T14:13:07.181Z,57.80
2019-04-25T14:15:37.286Z,57.50
2019-04-25T14:18:10.579Z,58.80
2019-04-25T14:20:43.295Z,58.60
2019-04-25T14:23:13.427Z,58.50
2019-04-25T14:25:41.905Z,58.70
2019-04-25T14:28:11.001Z,58.40
2019-04-25T14:30:39.894Z,59.30
2019-04-25T14:33:08.902Z,58.70
2019-04-25T14:35:37.282Z,57.70
2019-04-25T14:38:05.734Z,58.70
2019-04-25T14:40:34.141Z,60.00
2019-04-25T14:43:03.330Z,59.40
2019-04-25T14:45:43.058Z,60.10
2019-04-25T14:48:01.722Z,59.50
2019-04-25T14:50:30.110Z,59.40
2019-04-25T14:52:58.811Z,59.20
2019-04-25T14:58:17.803Z,58.60
2019-04-25T15:00:47.902Z,58.10
2019-04-25T15:03:16.951Z,59.20
2019-04-25T15:05:45.325Z,59.40
2019-04-25T15:08:13.811Z,60.70
2019-04-25T15:10:42.197Z,61.90
2019-04-25T15:13:10.643Z,61.50
2019-04-25T15:15:39.100Z,63.90
2019-04-25T15:18:07.519Z,64.30
2019-04-25T15:20:35.910Z,63.50
2019-04-25T15:23:04.454Z,63.20
2019-04-25T15:25:32.835Z,63.40
2019-04-25T15:28:01.307Z,62.40
2019-04-25T15:30:31.334Z,59.80
2019-04-25T15:32:59.999Z,61.40
2019-04-25T15:35:33.070Z,61.40
2019-04-25T15:38:08.625Z,60.70
2019-04-25T15:40:50.737Z,61.00
2019-04-25T15:43:23.856Z,62.40
2019-04-25T15:45:53.964Z,63.10
2019-04-25T15:48:22.347Z,62.10
2019-04-25T15:50:51.181Z,63.20
2019-04-25T15:53:19.810Z,62.00
2019-04-25T15:55:48.490Z,57.80
2019-04-25T15:58:16.876Z,54.00
2019-04-25T16:00:45.334Z,56.50
2019-04-25T16:03:14.043Z,53.20
2019-04-25T16:05:42.469Z,51.20
2019-04-25T16:08:10.945Z,48.20
2019-04-25T16:10:39.340Z,47.10
2019-04-25T16:13:07.784Z,48.60
2019-04-25T16:15:36.282Z,46.50
2019-04-25T16:18:05.950Z,46.40
2019-04-25T16:20:34.376Z,46.10
2019-04-25T16:23:03.006Z,47.80
2019-04-25T16:25:31.376Z,50.10
2019-04-25T16:27:59.766Z,46.50
2019-04-25T16:30:32.826Z,47.50
2019-04-25T16:33:01.288Z,50.00
2019-04-25T16:35:29.840Z,49.30
2019-04-25T16:37:58.686Z,49.90
2019-04-25T16:40:27.544Z,49.50
2019-04-25T16:42:59.001Z,49.40
2019-04-25T16:45:27.466Z,52.70
2019-04-25T16:47:55.838Z,52.10
2019-04-25T16:50:24.439Z,53.50
2019-04-25T16:52:52.819Z,58.40
2019-04-25T16:55:21.278Z,58.10
2019-04-25T16:57:49.657Z,60.40
2019-04-25T17:00:38.339Z,60.90
2019-04-25T17:03:07.170Z,59.50
2019-04-25T17:05:35.734Z,59.50
2019-04-25T17:08:04.137Z,61.40
2019-04-25T17:10:32.849Z,58.70
2019-04-25T17:13:01.474Z,58.60
2019-04-25T17:15:46.770Z,59.10
2019-04-25T17:18:19.702Z,60.50
2019-04-25T17:20:52.505Z,62.70
2019-04-25T17:23:21.210Z,63.50
2019-04-25T17:25:49.579Z,67.50
2019-04-25T17:28:18.087Z,69.80
2019-04-25T17:30:48.114Z,71.50
2019-04-25T17:33:35.661Z,71.60
2019-04-25T17:36:08.933Z,71.50
2019-04-25T17:38:39.828Z,70.80
2019-04-25T17:41:08.592Z,71.50
2019-04-25T17:43:51.757Z,71.70
2019-04-25T17:46:21.777Z,71.00
2019-04-25T17:48:50.186Z,70.60
2019-04-25T17:51:18.639Z,70.40
2019-04-25T17:53:47.029Z,71.10
2019-04-25T17:56:15.494Z,71.70
2019-04-25T17:58:44.113Z,72.10
2019-04-25T18:01:14.122Z,74.10
2019-04-25T18:03:44.040Z,74.30
2019-04-25T18:06:12.896Z,73.10
2019-04-25T18:08:41.710Z,73.60
2019-04-25T18:11:11.047Z,73.30
2019-04-25T18:13:40.108Z,73.40
2019-04-25T18:16:13.933Z,73.60
2019-04-25T18:18:46.955Z,74.60
2019-04-25T18:21:15.368Z,75.00
2019-04-25T18:23:48.331Z,75.20
2019-04-25T18:26:18.645Z,74.40
2019-04-25T18:28:50.969Z,74.80
2019-04-25T18:31:20.549Z,74.50
2019-04-25T18:33:50.702Z,74.70
2019-04-25T18:36:40.438Z,74.80
2019-04-25T18:39:14.262Z,76.20
2019-04-25T18:41:50.410Z,74.80
2019-04-25T18:44:20.368Z,74.80
2019-04-25T18:46:48.710Z,74.40
2019-04-25T18:49:19.950Z,74.50
2019-04-25T18:51:57.497Z,74.60
2019-04-25T18:54:21.727Z,74.10
2019-04-25T18:56:52.755Z,73.70
2019-04-25T18:59:39.680Z,73.90
2019-04-25T19:02:17.898Z,73.60
2019-04-25T19:04:49.144Z,72.90
2019-04-25T19:07:22.606Z,73.20
2019-04-25T19:10:09.861Z,73.30
2019-04-25T19:12:41.127Z,73.60
2019-04-25T19:15:09.902Z,73.50
2019-04-25T19:17:38.846Z,73.70
2019-04-25T19:20:08.238Z,72.60
2019-04-25T19:22:40.131Z,72.80
2019-04-25T19:25:10.328Z,73.20
2019-04-25T19:27:42.169Z,74.00
2019-04-25T19:30:12.843Z,73.60
2019-04-25T19:32:44.960Z,72.90
2019-04-25T19:35:17.673Z,73.90
2019-04-25T19:37:46.451Z,73.90
2019-04-25T19:40:23.475Z,73.70
2019-04-25T19:43:02.281Z,74.00
2019-04-25T19:45:33.236Z,73.40
2019-04-25T19:48:02.621Z,74.20
2019-04-25T19:50:30.734Z,74.80
2019-04-25T19:53:01.831Z,74.90
2019-04-25T19:55:30.209Z,74.90
2019-04-25T19:57:58.651Z,75.10
2019-04-25T20:00:28.519Z,75.60
2019-04-25T20:02:58.982Z,76.00
2019-04-25T20:05:42.074Z,76.40
2019-04-25T20:08:28.591Z,76.30
2019-04-25T20:11:01.601Z,75.80
2019-04-25T20:13:33.281Z,76.00
2019-04-25T20:16:06.661Z,75.90
2019-04-25T20:18:36.214Z,75.60
2019-04-25T20:21:11.360Z,75.60
2019-04-25T20:23:43.593Z,75.70
2019-04-25T20:26:14.491Z,76.40
2019-04-25T20:28:44.866Z,76.00
2019-04-25T20:31:15.790Z,77.00
2019-04-25T20:34:11.308Z,76.80
2019-04-25T20:36:39.799Z,76.70
2019-04-25T20:39:10.655Z,76.80
2019-04-25T20:41:39.673Z,76.30
2019-04-25T20:44:08.020Z,76.30
2019-04-25T20:46:36.831Z,76.50
2019-04-25T20:49:05.223Z,76.60
2019-04-25T20:51:37.778Z,76.70
2019-04-25T20:54:07.619Z,76.80
2019-04-25T20:56:36.115Z,76.50
2019-04-25T20:59:05.205Z,76.10
2019-04-25T21:01:34.101Z,76.10
2019-04-25T21:04:12.765Z,76.50
2019-04-25T21:06:36.908Z,76.70
2019-04-25T21:09:06.735Z,76.70
2019-04-25T21:11:35.196Z,76.70
2019-04-25T21:14:05.410Z,76.40
2019-04-25T21:16:44.583Z,76.40
2019-04-25T21:19:14.572Z,76.10
2019-04-25T21:21:43.524Z,76.10
2019-04-25T21:24:13.025Z,75.30
2019-04-25T21:26:41.547Z,74.40
2019-04-25T21:29:10.017Z,75.10
2019-04-25T21:31:39.005Z,75.40
2019-04-25T21:34:07.488Z,75.70
2019-04-25T21:36:36.957Z,76.20
2019-04-25T21:39:07.979Z,76.60
2019-04-25T21:41:42.099Z,77.10
2019-04-25T21:44:11.277Z,77.50
2019-04-25T21:46:39.750Z,78.00
2019-04-25T21:49:08.442Z,78.50
2019-04-25T21:51:36.818Z,78.40
2019-04-25T21:54:05.488Z,79.20
2019-04-25T21:56:34.516Z,79.10
2019-04-25T21:59:04.006Z,79.40
2019-04-25T22:01:40.458Z,79.30
2019-04-25T22:04:08.836Z,79.70
2019-04-25T22:06:38.016Z,79.70
2019-04-25T22:09:11.494Z,79.50
2019-04-25T22:11:39.866Z,79.40
2019-04-25T22:14:09.219Z,79.50
2019-04-25T22:16:38.314Z,79.70
2019-04-25T22:19:08.252Z,80.20
2019-04-25T22:21:38.122Z,81.00
2019-04-25T22:24:13.761Z,80.20
2019-04-25T22:26:37.638Z,80.10
2019-04-25T22:29:07.477Z,80.00
2019-04-25T22:31:43.542Z,79.60
2019-04-25T22:34:13.590Z,79.70
2019-04-25T22:36:42.294Z,79.60
2019-04-25T22:39:14.102Z,79.50
2019-04-25T22:41:46.941Z,79.30
2019-04-25T22:44:16.664Z,79.00
2019-04-25T22:46:45.451Z,78.90
2019-04-25T22:49:13.856Z,78.90
2019-04-25T22:51:42.518Z,78.90
2019-04-25T22:54:11.811Z,79.20
2019-04-25T22:56:40.374Z,79.30
2019-04-25T22:59:09.723Z,79.30
2019-04-25T23:01:39.861Z,79.20
2019-04-25T23:04:26.255Z,79.30
2019-04-25T23:06:55.008Z,78.90
2019-04-25T23:09:23.462Z,78.80
2019-04-25T23:11:52.256Z,79.20
2019-04-25T23:14:21.239Z,78.50
2019-04-25T23:16:49.626Z,78.60
2019-04-25T23:19:18.018Z,78.70
2019-04-25T23:21:46.693Z,78.80
2019-04-25T23:24:16.721Z,78.20
2019-04-25T23:27:06.284Z,78.00
2019-04-25T23:29:35.198Z,78.20
2019-04-25T23:32:04.029Z,78.50
2019-04-25T23:34:33.316Z,78.40
2019-04-25T23:37:01.708Z,78.30
2019-04-25T23:39:30.293Z,78.50
2019-04-25T23:41:58.680Z,78.60
2019-04-25T23:44:27.102Z,78.40
2019-04-25T23:46:56.073Z,78.80
2019-04-25T23:49:24.456Z,79.10
2019-04-25T23:51:53.546Z,79.40
2019-04-25T23:54:21.921Z,79.60
2019-04-25T23:56:50.311Z,79.80
2019-04-25T23:59:18.701Z,80.20
